createdAt,value
2023-04-27T00:00:13.769Z,11.63
2023-04-27T00:04:18.236Z,11.62
2023-04-27T00:08:18.630Z,11.51
2023-04-27T00:12:19.110Z,11.61
2023-04-27T00:16:19.310Z,11.67
2023-04-27T00:20:22.445Z,11.77
2023-04-27T00:24:22.723Z,11.67
2023-04-27T00:28:24.510Z,11.60
2023-04-27T00:32:24.756Z,11.46
2023-04-27T00:36:27.649Z,11.47
2023-04-27T00:40:27.780Z,11.45
2023-04-27T00:44:28.353Z,11.42
2023-04-27T00:48:29.958Z,11.26
2023-04-27T00:52:33.409Z,11.50
2023-04-27T00:56:35.324Z,11.63
2023-04-27T01:00:35.938Z,11.60
2023-04-27T01:04:37.243Z,11.34
2023-04-27T01:08:40.181Z,11.46
2023-04-27T01:12:41.300Z,11.37
2023-04-27T01:16:41.486Z,11.52
2023-04-27T01:20:43.643Z,11.57
2023-04-27T01:24:47.208Z,11.58
2023-04-27T01:28:47.672Z,11.52
2023-04-27T01:32:47.930Z,11.48
2023-04-27T01:36:48.670Z,11.47
2023-04-27T01:40:51.652Z,11.37
2023-04-27T01:44:54.700Z,11.43
2023-04-27T01:48:54.850Z,11.40
2023-04-27T01:52:55.035Z,11.41
2023-04-27T01:56:58.867Z,11.55
2023-04-27T02:00:58.946Z,11.53
2023-04-27T02:04:59.169Z,11.42
2023-04-27T02:08:59.568Z,11.28
2023-04-27T02:13:02.287Z,11.34
2023-04-27T02:17:02.568Z,11.34
2023-04-27T02:21:02.938Z,11.21
2023-04-27T02:25:03.839Z,11.25
2023-04-27T02:29:06.657Z,11.21
2023-04-27T02:33:07.368Z,11.28
2023-04-27T02:37:07.799Z,11.38
2023-04-27T02:41:08.237Z,11.22
2023-04-27T02:45:12.534Z,11.36
2023-04-27T02:49:13.068Z,11.47
2023-04-27T02:53:14.616Z,11.22
2023-04-27T02:57:15.071Z,11.32
2023-04-27T03:01:18.718Z,11.29
2023-04-27T03:05:19.067Z,11.34
2023-04-27T03:09:19.344Z,11.39
2023-04-27T03:13:19.634Z,11.39
2023-04-27T03:17:22.404Z,11.40
2023-04-27T03:21:22.703Z,11.46
2023-04-27T03:25:23.328Z,11.47
2023-04-27T03:29:23.811Z,11.26
2023-04-27T03:33:27.232Z,11.25
2023-04-27T03:37:27.552Z,11.26
2023-04-27T03:41:30.174Z,11.31
2023-04-27T03:45:31.392Z,11.29
2023-04-27T03:49:34.104Z,11.35
2023-04-27T03:53:34.275Z,11.37
2023-04-27T03:57:34.868Z,11.49
2023-04-27T04:01:35.334Z,11.38
2023-04-27T04:05:38.177Z,11.14
2023-04-27T04:09:38.563Z,11.35
2023-04-27T04:13:39.431Z,11.26
2023-04-27T04:17:39.737Z,11.34
2023-04-27T04:21:43.324Z,11.31
2023-04-27T04:25:43.579Z,11.48
2023-04-27T04:29:43.836Z,11.56
2023-04-27T04:33:44.420Z,11.63
2023-04-27T04:37:47.377Z,11.73
2023-04-27T04:41:49.392Z,12.04
2023-04-27T04:45:51.123Z,12.08
2023-04-27T04:49:51.618Z,12.25
2023-04-27T04:53:54.372Z,12.32
2023-04-27T04:57:56.486Z,12.45
2023-04-27T05:01:58.194Z,12.47
2023-04-27T05:05:58.384Z,12.68
2023-04-27T05:10:01.295Z,12.83
2023-04-27T05:14:02.019Z,13.06
2023-04-27T05:18:02.238Z,13.30
2023-04-27T05:22:02.836Z,13.16
2023-04-27T05:26:14.515Z,13.26
2023-04-27T05:30:16.719Z,13.31
2023-04-27T05:34:17.030Z,13.78
2023-04-27T05:38:17.995Z,13.83
2023-04-27T05:42:20.803Z,14.03
2023-04-27T05:46:21.344Z,14.32
2023-04-27T05:50:21.669Z,14.37
2023-04-27T05:54:22.363Z,14.60
2023-04-27T05:58:25.623Z,14.57
2023-04-27T06:02:26.267Z,14.81
2023-04-27T06:06:26.538Z,15.03
2023-04-27T06:10:27.205Z,15.37
2023-04-27T06:14:30.145Z,15.52
2023-04-27T06:18:30.696Z,15.53
2023-04-27T06:22:31.012Z,15.72
2023-04-27T06:26:31.436Z,16.20
2023-04-27T06:30:34.544Z,16.16
2023-04-27T06:34:35.352Z,16.40
2023-04-27T06:38:35.523Z,16.55
2023-04-27T06:42:35.728Z,16.66
2023-04-27T06:46:41.072Z,16.70
2023-04-27T06:50:41.480Z,16.87
2023-04-27T06:54:42.328Z,16.71
2023-04-27T06:58:42.545Z,16.91
2023-04-27T07:02:45.350Z,17.01
2023-04-27T07:06:45.758Z,17.20
2023-04-27T07:10:46.358Z,17.45
2023-04-27T07:14:46.762Z,17.33
2023-04-27T07:18:49.492Z,17.47
2023-04-27T07:22:49.703Z,17.51
2023-04-27T07:26:49.903Z,18.18
2023-04-27T07:30:50.741Z,19.06
2023-04-27T07:34:54.500Z,19.56
2023-04-27T07:38:54.825Z,20.06
2023-04-27T07:42:55.299Z,20.02
2023-04-27T07:46:58.708Z,20.71
2023-04-27T07:51:01.695Z,20.66
2023-04-27T07:55:02.208Z,20.48
2023-04-27T07:59:02.712Z,20.16
2023-04-27T08:03:03.137Z,21.12
2023-04-27T08:07:06.846Z,21.50
2023-04-27T08:11:07.323Z,21.38
2023-04-27T08:15:09.975Z,22.02
2023-04-27T08:19:10.115Z,22.30
2023-04-27T08:23:13.273Z,22.55
2023-04-27T08:27:15.665Z,22.71
2023-04-27T08:31:16.095Z,22.78
2023-04-27T08:35:16.426Z,22.68
2023-04-27T08:39:19.271Z,22.28
2023-04-27T08:43:19.500Z,22.45
2023-04-27T08:47:28.164Z,22.79
2023-04-27T08:51:35.953Z,23.22
2023-04-27T08:55:38.951Z,23.13
2023-04-27T08:59:39.241Z,22.93
2023-04-27T09:03:41.497Z,23.56
2023-04-27T09:07:41.745Z,24.18
2023-04-27T09:11:45.431Z,24.66
2023-04-27T09:15:48.658Z,26.07
2023-04-27T09:19:49.079Z,26.89
2023-04-27T09:23:49.280Z,27.82
2023-04-27T09:27:52.099Z,27.27
2023-04-27T09:31:52.292Z,28.00
2023-04-27T09:35:53.342Z,29.04
2023-04-27T09:39:53.612Z,29.88
2023-04-27T09:43:59.773Z,30.03
2023-04-27T09:48:01.303Z,30.71
2023-04-27T09:52:01.770Z,31.04
2023-04-27T09:56:19.513Z,29.15
2023-04-27T10:00:44.756Z,29.31
2023-04-27T10:05:13.729Z,26.50
2023-04-27T10:09:15.091Z,27.05
2023-04-27T10:13:26.464Z,27.44
2023-04-27T10:17:35.125Z,26.35
2023-04-27T10:21:35.465Z,27.05
2023-04-27T10:25:43.153Z,26.19
2023-04-27T10:29:46.295Z,25.50
2023-04-27T10:33:49.130Z,24.69
2023-04-27T10:37:49.403Z,26.80
2023-04-27T10:41:54.529Z,27.66
2023-04-27T10:45:54.751Z,29.58
2023-04-27T10:49:58.681Z,30.05
2023-04-27T10:54:00.186Z,29.91
2023-04-27T10:58:01.702Z,30.78
2023-04-27T11:02:01.936Z,31.72
2023-04-27T11:06:09.748Z,32.40
2023-04-27T11:10:13.230Z,32.70
2023-04-27T11:14:16.643Z,32.43
2023-04-27T11:18:17.885Z,31.92
2023-04-27T11:22:20.892Z,29.96
2023-04-27T11:26:26.743Z,28.91
2023-04-27T11:30:27.792Z,27.66
2023-04-27T11:34:34.510Z,27.17
2023-04-27T11:38:40.388Z,27.15
2023-04-27T11:42:43.605Z,27.27
2023-04-27T11:46:49.774Z,27.17
2023-04-27T11:50:51.028Z,26.49
2023-04-27T11:54:56.981Z,27.39
2023-04-27T11:58:57.332Z,26.54
2023-04-27T12:02:57.743Z,26.06
2023-04-27T12:06:58.291Z,27.21
2023-04-27T12:11:01.208Z,26.53
2023-04-27T12:15:01.911Z,25.90
2023-04-27T12:19:02.139Z,25.52
2023-04-27T12:23:02.329Z,27.06
2023-04-27T12:27:05.534Z,29.35
2023-04-27T12:31:08.540Z,31.75
2023-04-27T12:35:10.655Z,31.24
2023-04-27T12:39:23.947Z,30.65
2023-04-27T12:43:26.907Z,30.52
2023-04-27T12:47:49.778Z,29.42
2023-04-27T12:51:52.139Z,28.74
2023-04-27T12:55:53.666Z,28.28
2023-04-27T12:59:57.719Z,28.41
2023-04-27T13:04:03.468Z,27.33
2023-04-27T13:08:04.950Z,25.86
2023-04-27T13:12:05.198Z,25.96
2023-04-27T13:16:08.767Z,24.81
2023-04-27T13:20:11.971Z,22.71
2023-04-27T13:24:12.549Z,23.84
2023-04-27T13:28:12.785Z,24.13
2023-04-27T13:32:15.697Z,24.15
2023-04-27T13:36:16.508Z,24.54
2023-04-27T13:40:16.978Z,23.58
2023-04-27T13:44:17.234Z,23.62
2023-04-27T13:48:20.021Z,24.50
2023-04-27T13:52:20.440Z,25.44
2023-04-27T13:56:21.221Z,26.29
2023-04-27T14:04:37.389Z,27.21
2023-04-27T14:08:38.212Z,27.01
2023-04-27T14:12:39.126Z,26.87
2023-04-27T14:16:39.334Z,25.36
2023-04-27T14:20:42.552Z,27.14
2023-04-27T14:24:42.754Z,28.16
2023-04-27T14:28:43.544Z,27.22
2023-04-27T14:32:43.793Z,27.48
2023-04-27T14:36:46.701Z,27.38
2023-04-27T14:40:47.099Z,27.44
2023-04-27T14:44:48.707Z,28.28
2023-04-27T14:48:51.565Z,27.02
2023-04-27T14:52:58.130Z,27.27
2023-04-27T14:56:58.970Z,27.34
2023-04-27T15:00:59.264Z,25.80
2023-04-27T15:04:59.589Z,25.24
2023-04-27T15:09:02.880Z,25.90
2023-04-27T15:13:05.265Z,27.41
2023-04-27T15:17:06.724Z,27.52
2023-04-27T15:21:07.584Z,27.64
2023-04-27T15:25:12.041Z,27.23
2023-04-27T15:29:12.593Z,26.61
2023-04-27T15:33:13.347Z,27.01
2023-04-27T15:37:13.889Z,26.46
2023-04-27T15:41:16.908Z,25.42
2023-04-27T15:45:17.309Z,25.34
2023-04-27T15:49:17.637Z,24.52
2023-04-27T15:53:17.829Z,25.34
2023-04-27T15:57:21.202Z,24.76
2023-04-27T16:01:21.794Z,24.82
2023-04-27T16:05:22.448Z,24.53
2023-04-27T16:09:22.944Z,24.84
2023-04-27T16:13:27.369Z,24.60
2023-04-27T16:17:28.075Z,23.79
2023-04-27T16:21:29.251Z,24.69
2023-04-27T16:25:29.409Z,26.14
2023-04-27T16:29:32.383Z,27.74
2023-04-27T16:33:32.602Z,29.30
2023-04-27T16:37:35.686Z,30.75
2023-04-27T16:41:36.090Z,31.63
2023-04-27T16:45:41.897Z,29.62
2023-04-27T16:49:42.426Z,30.03
2023-04-27T16:54:32.048Z,29.37
2023-04-27T16:58:33.638Z,29.07
2023-04-27T17:02:36.925Z,27.90
2023-04-27T17:06:37.584Z,25.51
2023-04-27T17:10:38.764Z,24.86
2023-04-27T17:14:39.796Z,24.48
2023-04-27T17:18:43.154Z,23.15
2023-04-27T17:22:43.404Z,22.90
2023-04-27T17:26:43.588Z,22.79
2023-04-27T17:30:43.791Z,22.64
2023-04-27T17:34:46.837Z,22.31
2023-04-27T17:38:47.393Z,22.27
2023-04-27T17:42:48.175Z,22.14
2023-04-27T17:46:54.106Z,22.15
2023-04-27T17:50:57.494Z,22.15
2023-04-27T17:54:58.597Z,22.20
2023-04-27T17:58:58.730Z,22.12
2023-04-27T18:02:59.347Z,22.17
2023-04-27T18:07:02.524Z,21.89
2023-04-27T18:11:03.166Z,21.82
2023-04-27T18:15:05.535Z,21.32
2023-04-27T18:19:07.265Z,21.00
2023-04-27T18:23:10.428Z,20.89
2023-04-27T18:27:10.686Z,20.66
2023-04-27T18:31:17.519Z,20.12
2023-04-27T18:35:18.053Z,20.07
2023-04-27T18:39:21.003Z,19.72
2023-04-27T18:43:21.265Z,19.68
2023-04-27T18:47:21.708Z,19.30
2023-04-27T18:51:23.258Z,19.17
2023-04-27T18:55:26.371Z,19.10
2023-04-27T18:59:26.812Z,18.68
2023-04-27T19:03:28.017Z,17.94
2023-04-27T19:07:28.909Z,18.50
2023-04-27T19:11:32.384Z,18.36
2023-04-27T19:15:32.884Z,18.20
2023-04-27T19:19:33.542Z,18.15
2023-04-27T19:23:33.987Z,18.03
2023-04-27T19:27:37.044Z,17.87
2023-04-27T19:31:39.881Z,17.95
2023-04-27T19:35:40.276Z,17.74
2023-04-27T19:39:41.344Z,17.55
2023-04-27T19:43:44.413Z,17.47
2023-04-27T19:47:44.739Z,17.27
2023-04-27T19:51:45.379Z,17.17
2023-04-27T19:55:45.554Z,17.07
2023-04-27T19:59:48.614Z,17.01
2023-04-27T20:03:49.158Z,16.95
2023-04-27T20:07:50.194Z,16.80
2023-04-27T20:11:50.368Z,16.77
2023-04-27T20:15:53.682Z,16.60
2023-04-27T20:19:59.352Z,16.50
2023-04-27T20:23:59.816Z,16.55
2023-04-27T20:28:00.179Z,16.20
2023-04-27T20:32:03.235Z,16.11
2023-04-27T20:36:16.208Z,15.92
2023-04-27T20:40:19.198Z,15.86
2023-04-27T20:44:20.943Z,15.85
2023-04-27T20:48:24.204Z,15.83
2023-04-27T20:52:25.410Z,15.74
2023-04-27T20:56:26.332Z,15.78
2023-04-27T21:00:27.048Z,15.73
2023-04-27T21:04:29.958Z,15.45
2023-04-27T21:08:33.896Z,15.40
2023-04-27T21:12:34.238Z,15.38
2023-04-27T21:16:34.536Z,15.41
2023-04-27T21:20:37.637Z,15.39
2023-04-27T21:24:37.917Z,15.38
2023-04-27T21:28:38.172Z,15.32
2023-04-27T21:32:38.349Z,15.25
2023-04-27T21:36:41.214Z,14.87
2023-04-27T21:40:41.521Z,14.67
2023-04-27T21:44:41.826Z,14.56
2023-04-27T21:48:42.124Z,14.74
2023-04-27T21:52:44.986Z,14.54
2023-04-27T21:56:45.430Z,14.40
2023-04-27T22:00:45.942Z,14.66
2023-04-27T22:04:46.298Z,14.62
2023-04-27T22:08:49.526Z,14.59
2023-04-27T22:12:49.801Z,14.77
2023-04-27T22:16:50.336Z,14.67
2023-04-27T22:20:50.666Z,15.08
2023-04-27T22:24:54.067Z,14.88
2023-04-27T22:28:54.286Z,14.75
2023-04-27T22:32:54.916Z,14.75
2023-04-27T22:36:55.999Z,14.88
2023-04-27T22:40:59.226Z,14.69
2023-04-27T22:44:59.356Z,14.78
2023-04-27T22:49:01.676Z,14.89
2023-04-27T22:53:02.259Z,14.82
2023-04-27T22:57:05.339Z,14.80
2023-04-27T23:01:06.296Z,14.94
2023-04-27T23:05:07.268Z,14.62
2023-04-27T23:09:07.597Z,14.53
2023-04-27T23:13:10.960Z,14.59
2023-04-27T23:17:12.163Z,14.34
2023-04-27T23:21:13.276Z,14.58
2023-04-27T23:25:14.015Z,14.72
2023-04-27T23:29:16.930Z,14.68
2023-04-27T23:33:17.222Z,14.63
2023-04-27T23:37:17.503Z,14.60
2023-04-27T23:41:17.730Z,14.78
2023-04-27T23:45:20.741Z,14.74
2023-04-27T23:49:20.896Z,14.73
2023-04-27T23:53:21.129Z,14.61
2023-04-27T23:57:21.251Z,14.77
